Terminal Aerodrome Forecast
Issued by NWS Wilmington, OH

Current Version | Previous Version | Text Only | Print | Product List | Glossary Off
Versions: 1 2 3 4 5 6 7 8 9 10 11 12 13 14 15 16 17 18 19 20 21 22 23 24 25 26 27 28 29 30 31 32 33 34 35

209
FTUS41 KILN 301139
TAFCVG
TAF
KCVG 301139Z 3012/0118 09009KT P6SM VCSH OVC060
     FM301400 09011G18KT 4SM -SHRA BR OVC025
     FM301600 11012G19KT 2SM -SHRA BR OVC015
     FM010000 19010KT 4SM BR VCSH BKN008
     FM010600 19008KT 5SM BR VCSH OVC015
     FM011200 20006KT 5SM BR OVC015=

USA.gov is the U.S. government's official web portal to all federal, state and local government web resources and services.